createdAt,value
2019-04-29T00:00:48.996Z,29.12
2019-04-29T00:02:50.983Z,26.05
2019-04-29T00:04:53.257Z,25.57
2019-04-29T00:08:56.999Z,25.95
2019-04-29T00:10:59.158Z,30.20
2019-04-29T00:13:01.228Z,23.42
2019-04-29T00:15:20.473Z,25.88
2019-04-29T00:17:35.265Z,25.65
2019-04-29T00:20:04.979Z,26.52
2019-04-29T00:22:07.511Z,28.15
2019-04-29T00:24:09.496Z,24.47
2019-04-29T00:26:11.769Z,28.35
2019-04-29T00:28:14.203Z,28.52
2019-04-29T00:30:20.214Z,26.80
2019-04-29T00:32:22.464Z,27.30
2019-04-29T00:34:24.727Z,22.93
2019-04-29T00:36:30.544Z,27.93
2019-04-29T00:41:28.998Z,28.05
2019-04-29T00:43:50.708Z,29.45
2019-04-29T00:45:52.707Z,29.10
2019-04-29T00:47:54.825Z,26.82
2019-04-29T00:49:57.279Z,30.32
2019-04-29T00:51:59.304Z,31.15
2019-04-29T00:54:07.346Z,29.20
2019-04-29T00:56:09.354Z,32.35
2019-04-29T00:58:11.364Z,29.67
2019-04-29T01:00:23.296Z,30.88
2019-04-29T01:02:25.398Z,33.45
2019-04-29T01:04:27.453Z,32.75
2019-04-29T01:06:29.466Z,32.35
2019-04-29T01:08:31.620Z,29.75
2019-04-29T01:10:33.808Z,28.87
2019-04-29T01:12:37.882Z,32.38
2019-04-29T01:14:39.916Z,31.60
2019-04-29T01:16:42.202Z,31.85
2019-04-29T01:18:44.220Z,34.67
2019-04-29T01:20:46.237Z,29.27
2019-04-29T01:22:48.587Z,30.00
2019-04-29T01:24:50.623Z,30.57
2019-04-29T01:27:10.877Z,34.18
2019-04-29T01:29:13.792Z,38.20
2019-04-29T01:31:23.744Z,36.55
2019-04-29T01:33:25.956Z,31.27
2019-04-29T01:35:27.955Z,36.75
2019-04-29T01:37:41.278Z,34.75
2019-04-29T01:39:48.989Z,37.20
2019-04-29T01:42:06.934Z,34.38
2019-04-29T01:44:08.982Z,40.67
2019-04-29T01:46:11.021Z,36.13
2019-04-29T01:48:13.054Z,38.05
2019-04-29T01:50:15.046Z,35.60
2019-04-29T01:52:17.324Z,36.58
2019-04-29T01:54:19.317Z,35.88
2019-04-29T01:56:21.377Z,40.20
2019-04-29T01:58:23.522Z,40.33
2019-04-29T02:00:25.501Z,42.17
2019-04-29T02:02:27.845Z,40.92
2019-04-29T02:04:29.843Z,36.83
2019-04-29T02:06:31.853Z,39.80
2019-04-29T02:08:34.086Z,41.98
2019-04-29T02:10:36.057Z,39.15
2019-04-29T02:12:38.069Z,44.98
2019-04-29T02:14:40.339Z,41.18
2019-04-29T02:16:42.336Z,40.17
2019-04-29T02:18:44.366Z,41.28
2019-04-29T02:20:46.382Z,41.33
2019-04-29T02:22:54.915Z,38.73
2019-04-29T02:25:02.263Z,42.33
2019-04-29T02:27:05.821Z,41.95
2019-04-29T02:29:08.012Z,37.88
2019-04-29T02:31:28.761Z,41.53
2019-04-29T02:33:30.746Z,42.73
2019-04-29T02:35:32.771Z,45.08
2019-04-29T02:37:38.197Z,44.67
2019-04-29T02:39:45.795Z,42.75
2019-04-29T02:42:19.611Z,43.08
2019-04-29T02:44:21.858Z,43.95
2019-04-29T02:46:23.913Z,43.15
2019-04-29T02:48:29.991Z,44.18
2019-04-29T02:50:29.806Z,42.62
2019-04-29T02:52:31.771Z,42.35
2019-04-29T02:54:33.854Z,44.15
2019-04-29T02:56:36.042Z,39.30
2019-04-29T02:58:47.426Z,43.55
2019-04-29T03:01:09.183Z,39.35
2019-04-29T03:03:17.357Z,40.55
2019-04-29T03:05:25.733Z,41.75
2019-04-29T03:07:28.045Z,44.65
2019-04-29T03:11:33.726Z,40.60
2019-04-29T03:13:35.688Z,39.40
2019-04-29T03:15:41.606Z,38.73
2019-04-29T03:17:43.993Z,41.08
2019-04-29T03:22:08.011Z,40.92
2019-04-29T03:24:10.035Z,39.55
2019-04-29T03:26:12.054Z,42.40
2019-04-29T03:28:14.066Z,38.65
2019-04-29T03:30:19.201Z,38.92
2019-04-29T03:32:21.184Z,43.85
2019-04-29T03:34:23.285Z,39.75
2019-04-29T03:36:25.367Z,40.52
2019-04-29T03:38:27.431Z,40.73
2019-04-29T03:40:29.517Z,46.28
2019-04-29T03:42:31.583Z,44.27
2019-04-29T03:44:34.724Z,41.40
2019-04-29T03:46:36.775Z,42.67
2019-04-29T03:48:38.970Z,39.73
2019-04-29T03:50:41.353Z,39.23
2019-04-29T03:54:45.344Z,42.20
2019-04-29T03:56:47.367Z,38.83
2019-04-29T03:58:49.365Z,45.28
2019-04-29T04:00:55.147Z,42.58
2019-04-29T04:03:13.804Z,44.77
2019-04-29T04:05:53.774Z,41.05
2019-04-29T04:08:07.193Z,39.70
2019-04-29T04:10:09.541Z,42.17
2019-04-29T04:14:15.794Z,41.50
2019-04-29T04:16:28.140Z,39.95
2019-04-29T04:18:32.079Z,38.98
2019-04-29T04:20:34.377Z,40.85
2019-04-29T04:24:50.984Z,40.50
2019-04-29T04:26:53.189Z,41.77
2019-04-29T04:28:55.307Z,43.02
2019-04-29T04:30:57.535Z,40.50
2019-04-29T04:32:59.720Z,40.55
2019-04-29T04:35:03.206Z,40.83
2019-04-29T04:37:05.225Z,39.33
2019-04-29T04:39:07.612Z,39.83
2019-04-29T04:41:11.671Z,40.15
2019-04-29T04:43:13.724Z,38.13
2019-04-29T04:45:15.915Z,39.18
2019-04-29T04:47:18.998Z,39.55
2019-04-29T04:49:20.963Z,37.58
2019-04-29T04:51:23.149Z,36.03
2019-04-29T04:53:25.164Z,35.78
2019-04-29T04:55:29.711Z,44.08
2019-04-29T04:57:31.807Z,37.03
2019-04-29T04:59:33.816Z,36.90
2019-04-29T05:01:35.799Z,36.63
2019-04-29T05:03:37.782Z,38.50
2019-04-29T05:05:42.624Z,35.80
2019-04-29T05:07:44.139Z,34.10
2019-04-29T05:09:46.304Z,33.90
2019-04-29T05:11:48.462Z,32.30
2019-04-29T05:13:50.500Z,32.13
2019-04-29T05:15:52.490Z,38.15
2019-04-29T05:17:54.534Z,36.53
2019-04-29T05:19:56.535Z,36.33
2019-04-29T05:21:59.065Z,37.83
2019-04-29T05:24:01.132Z,35.10
2019-04-29T05:26:03.143Z,37.10
2019-04-29T05:28:05.167Z,33.50
2019-04-29T05:30:07.514Z,33.63
2019-04-29T05:32:09.681Z,34.80
2019-04-29T05:34:12.171Z,35.48
2019-04-29T05:36:40.180Z,32.42
2019-04-29T05:38:52.514Z,31.05
2019-04-29T05:40:56.820Z,29.52
2019-04-29T05:42:58.426Z,27.82
2019-04-29T05:45:34.901Z,32.70
2019-04-29T05:47:42.607Z,29.02
2019-04-29T05:50:06.620Z,31.55
2019-04-29T05:52:34.806Z,32.60
2019-04-29T05:54:40.012Z,32.65
2019-04-29T05:57:32.865Z,28.60
2019-04-29T05:59:35.001Z,24.90
2019-04-29T06:01:37.003Z,26.68
2019-04-29T06:03:39.816Z,23.65
2019-04-29T06:05:42.106Z,24.32
2019-04-29T06:07:44.343Z,26.68
2019-04-29T06:09:46.320Z,23.05
2019-04-29T06:11:49.444Z,24.20
2019-04-29T06:13:51.477Z,26.40
2019-04-29T06:15:53.642Z,26.35
2019-04-29T06:17:55.635Z,26.33
2019-04-29T06:19:57.615Z,22.05
2019-04-29T06:21:59.606Z,26.50
2019-04-29T06:24:04.440Z,23.75
2019-04-29T06:26:05.869Z,25.75
2019-04-29T06:28:08.012Z,24.85
2019-04-29T06:30:10.028Z,23.65
2019-04-29T06:32:12.171Z,27.65
2019-04-29T06:34:15.260Z,24.20
2019-04-29T06:36:17.278Z,25.05
2019-04-29T06:38:19.475Z,25.95
2019-04-29T06:40:21.460Z,23.85
2019-04-29T06:42:23.535Z,25.20
2019-04-29T06:44:25.628Z,25.48
2019-04-29T06:46:27.637Z,24.47
2019-04-29T06:48:29.634Z,23.38
2019-04-29T06:50:31.688Z,27.05
2019-04-29T06:52:33.814Z,24.35
2019-04-29T06:54:35.814Z,28.67
2019-04-29T06:56:37.845Z,22.90
2019-04-29T06:58:39.857Z,22.73
2019-04-29T07:00:41.861Z,25.65
2019-04-29T07:02:45.476Z,23.95
2019-04-29T07:04:47.791Z,26.48
2019-04-29T07:06:57.066Z,26.00
2019-04-29T07:08:53.712Z,25.52
2019-04-29T07:11:00.687Z,23.60
2019-04-29T07:12:59.792Z,26.82
2019-04-29T07:15:01.849Z,29.30
2019-04-29T07:17:05.681Z,27.07
2019-04-29T07:19:08.023Z,26.97
2019-04-29T07:21:11.945Z,25.55
2019-04-29T07:23:14.437Z,28.32
2019-04-29T07:27:18.213Z,28.77
2019-04-29T07:29:20.746Z,30.70
2019-04-29T07:31:23.341Z,27.70
2019-04-29T07:33:25.692Z,28.95
2019-04-29T07:35:27.696Z,29.05
2019-04-29T07:37:34.128Z,27.62
2019-04-29T07:39:34.038Z,27.58
2019-04-29T07:41:36.237Z,27.25
2019-04-29T07:43:42.613Z,27.02
2019-04-29T07:45:52.023Z,25.57
2019-04-29T07:47:56.896Z,24.70
2019-04-29T07:50:00.057Z,24.05
2019-04-29T07:52:02.252Z,27.98
2019-04-29T07:54:04.236Z,27.32
2019-04-29T07:56:08.093Z,26.90
2019-04-29T07:58:10.322Z,25.95
2019-04-29T08:00:14.594Z,23.62
2019-04-29T08:02:16.783Z,23.32
2019-04-29T08:04:18.791Z,23.45
2019-04-29T08:06:21.014Z,25.68
2019-04-29T08:08:23.524Z,23.45
2019-04-29T08:12:31.594Z,19.85
2019-04-29T08:14:33.985Z,20.68
2019-04-29T08:18:37.907Z,21.73
2019-04-29T08:20:41.454Z,18.35
2019-04-29T08:22:44.901Z,17.75
2019-04-29T08:24:50.576Z,16.57
2019-04-29T08:26:51.043Z,17.40
2019-04-29T08:30:56.772Z,16.15
2019-04-29T08:32:58.860Z,17.32
2019-04-29T08:35:03.283Z,17.40
2019-04-29T08:37:05.031Z,17.23
2019-04-29T08:39:08.816Z,16.30
2019-04-29T08:41:11.653Z,18.20
2019-04-29T08:43:33.572Z,14.58
2019-04-29T08:45:40.530Z,19.70
2019-04-29T08:47:44.573Z,18.00
2019-04-29T08:49:47.070Z,16.80
2019-04-29T08:51:49.112Z,16.82
2019-04-29T08:53:51.380Z,20.23
2019-04-29T08:55:53.398Z,17.65
2019-04-29T08:57:55.549Z,20.08
2019-04-29T08:59:57.550Z,18.15
2019-04-29T09:01:59.870Z,19.37
2019-04-29T09:04:01.877Z,18.45
2019-04-29T09:06:06.068Z,16.40
2019-04-29T09:08:08.150Z,16.85
2019-04-29T09:10:10.904Z,17.85
2019-04-29T09:12:12.921Z,16.32
2019-04-29T09:14:14.984Z,17.05
2019-04-29T09:16:17.240Z,18.55
2019-04-29T09:18:19.233Z,16.32
2019-04-29T09:20:21.297Z,17.52
2019-04-29T09:22:25.732Z,16.32
2019-04-29T09:24:27.830Z,18.48
2019-04-29T09:26:41.130Z,17.50
2019-04-29T09:28:43.495Z,17.42
2019-04-29T09:30:45.943Z,17.05
2019-04-29T09:32:47.952Z,18.42
2019-04-29T09:34:49.988Z,18.62
2019-04-29T09:36:52.030Z,15.75
2019-04-29T09:38:54.080Z,18.73
2019-04-29T09:41:02.292Z,20.23
2019-04-29T09:43:27.107Z,15.72
2019-04-29T09:45:37.714Z,18.65
2019-04-29T09:47:39.876Z,17.77
2019-04-29T09:49:41.884Z,17.60
2019-04-29T09:51:43.909Z,20.05
2019-04-29T09:53:46.070Z,20.88
2019-04-29T09:55:49.601Z,21.80
2019-04-29T09:57:51.948Z,19.73
2019-04-29T10:00:05.455Z,22.10
2019-04-29T10:02:31.314Z,20.92
2019-04-29T10:04:55.562Z,19.25
2019-04-29T10:06:47.609Z,22.13
2019-04-29T10:08:49.606Z,24.10
2019-04-29T10:10:51.586Z,26.93
2019-04-29T10:12:54.450Z,21.40
2019-04-29T10:14:56.632Z,22.20
2019-04-29T10:17:24.598Z,21.20
2019-04-29T10:19:46.257Z,21.82
2019-04-29T10:21:48.352Z,21.75
2019-04-29T10:23:50.545Z,20.15
2019-04-29T10:25:52.758Z,21.68
2019-04-29T10:27:54.787Z,18.42
2019-04-29T10:29:57.230Z,18.80
2019-04-29T10:32:02.407Z,17.25
2019-04-29T10:34:06.297Z,18.98
2019-04-29T10:36:08.674Z,19.15
2019-04-29T10:40:38.422Z,19.10
2019-04-29T10:42:47.175Z,17.45
2019-04-29T10:45:03.497Z,13.72
2019-04-29T10:47:32.451Z,16.55
2019-04-29T10:49:44.344Z,20.92
2019-04-29T10:51:46.384Z,18.32
2019-04-29T10:53:51.124Z,18.20
2019-04-29T10:55:53.003Z,16.60
2019-04-29T10:57:55.021Z,18.60
2019-04-29T11:00:03.524Z,18.35
2019-04-29T11:02:19.890Z,15.72
2019-04-29T11:04:22.423Z,16.67
2019-04-29T11:08:38.242Z,15.18
2019-04-29T11:10:40.217Z,15.18
2019-04-29T11:12:43.421Z,12.70
2019-04-29T11:14:45.562Z,17.67
2019-04-29T11:16:47.765Z,15.00
2019-04-29T11:18:49.983Z,14.55
2019-04-29T11:20:53.807Z,15.93
2019-04-29T11:23:03.180Z,14.00
2019-04-29T11:25:18.352Z,12.30
2019-04-29T11:27:24.695Z,14.07
2019-04-29T11:29:28.823Z,13.80
2019-04-29T11:31:31.647Z,16.23
2019-04-29T11:33:47.451Z,13.55
2019-04-29T11:36:09.029Z,14.18
2019-04-29T11:38:11.214Z,13.72
2019-04-29T11:40:14.831Z,12.80
2019-04-29T11:42:17.449Z,11.22
2019-04-29T11:46:23.560Z,14.35
2019-04-29T11:48:25.626Z,15.38
2019-04-29T11:50:45.223Z,10.58
2019-04-29T11:52:48.150Z,11.40
2019-04-29T11:54:50.337Z,10.43
2019-04-29T11:56:52.364Z,13.00
2019-04-29T11:59:04.363Z,9.95
2019-04-29T12:01:14.269Z,8.88
2019-04-29T12:03:18.934Z,10.20
2019-04-29T12:05:44.701Z,12.40
2019-04-29T12:07:44.175Z,12.23
2019-04-29T12:09:47.588Z,13.30
2019-04-29T12:11:49.896Z,12.75
2019-04-29T12:14:03.084Z,15.60
2019-04-29T12:18:19.458Z,14.13
2019-04-29T12:20:33.575Z,15.20
2019-04-29T12:22:47.730Z,12.18
2019-04-29T12:24:39.531Z,12.25
2019-04-29T12:26:44.352Z,13.68
2019-04-29T12:28:45.657Z,13.85
2019-04-29T12:30:49.609Z,16.37
2019-04-29T12:33:06.693Z,10.80
2019-04-29T12:35:30.493Z,6.78
2019-04-29T12:38:00.675Z,6.25
2019-04-29T12:40:22.645Z,7.72
2019-04-29T12:42:43.062Z,6.97
2019-04-29T12:44:53.947Z,3.22
2019-04-29T12:47:26.591Z,6.83
2019-04-29T12:49:26.927Z,5.58
2019-04-29T12:51:29.059Z,5.42
2019-04-29T12:53:31.107Z,7.22
2019-04-29T12:55:45.162Z,6.70
2019-04-29T12:57:41.711Z,6.78
2019-04-29T12:59:43.735Z,4.28
2019-04-29T13:02:14.061Z,3.20
2019-04-29T13:04:45.145Z,3.80
2019-04-29T13:06:59.584Z,5.70
2019-04-29T13:09:17.375Z,2.85
2019-04-29T13:11:10.693Z,4.33
2019-04-29T13:13:15.797Z,4.65
2019-04-29T13:15:26.682Z,5.08
2019-04-29T13:17:36.428Z,3.58
2019-04-29T13:20:00.708Z,1.57
2019-04-29T13:21:54.768Z,2.77
2019-04-29T13:24:12.525Z,3.37
2019-04-29T13:26:00.874Z,3.87
2019-04-29T13:28:04.410Z,2.15
2019-04-29T13:30:15.069Z,2.67
2019-04-29T13:32:14.294Z,6.78
2019-04-29T13:34:33.304Z,6.33
2019-04-29T13:36:35.004Z,2.20
2019-04-29T13:38:37.474Z,3.60
2019-04-29T13:40:39.575Z,6.03
2019-04-29T13:42:48.529Z,4.97
2019-04-29T13:45:04.741Z,2.02
2019-04-29T13:47:09.661Z,3.25
2019-04-29T13:51:35.269Z,3.08
2019-04-29T13:53:29.978Z,3.33
2019-04-29T13:55:47.721Z,4.28
2019-04-29T13:57:35.946Z,2.52
2019-04-29T13:59:49.269Z,1.30
2019-04-29T14:02:01.275Z,2.05
2019-04-29T14:04:24.278Z,5.70
2019-04-29T14:06:21.282Z,2.95
2019-04-29T14:08:24.152Z,1.72
2019-04-29T14:10:28.039Z,2.22
2019-04-29T14:14:33.962Z,2.40
2019-04-29T14:16:35.980Z,2.95
2019-04-29T14:18:38.109Z,2.40
2019-04-29T14:20:40.251Z,3.08
2019-04-29T14:22:42.453Z,1.82
2019-04-29T14:24:46.977Z,4.30
2019-04-29T14:26:49.513Z,3.83
2019-04-29T14:28:51.638Z,4.40
2019-04-29T14:30:55.758Z,2.70
2019-04-29T14:33:09.428Z,3.67
2019-04-29T14:35:21.466Z,2.30
2019-04-29T14:37:25.178Z,4.95
2019-04-29T14:39:36.731Z,3.55
2019-04-29T14:41:33.428Z,3.05
2019-04-29T14:43:50.523Z,5.40
2019-04-29T14:46:16.188Z,5.40
2019-04-29T14:48:25.909Z,4.75
2019-04-29T14:50:28.198Z,7.05
2019-04-29T14:52:30.781Z,9.08
2019-04-29T14:56:34.641Z,8.38
2019-04-29T14:58:36.712Z,5.67
2019-04-29T15:00:59.068Z,5.45
2019-04-29T15:03:02.829Z,6.55
2019-04-29T15:05:07.206Z,8.28
2019-04-29T15:07:09.533Z,9.15
2019-04-29T15:09:16.740Z,9.20
2019-04-29T15:11:31.046Z,9.08
2019-04-29T15:13:24.617Z,10.88
2019-04-29T15:16:03.542Z,6.20
2019-04-29T15:18:25.576Z,9.03
2019-04-29T15:20:36.467Z,11.63
2019-04-29T15:22:38.707Z,7.62
2019-04-29T15:24:40.735Z,10.28
2019-04-29T15:26:42.794Z,8.70
2019-04-29T15:28:50.816Z,7.95
2019-04-29T15:30:53.067Z,10.48
2019-04-29T15:32:57.883Z,8.00
2019-04-29T15:34:59.045Z,10.10
2019-04-29T15:37:01.322Z,17.35
2019-04-29T15:39:10.901Z,11.33
2019-04-29T15:41:12.778Z,13.83
2019-04-29T15:43:17.842Z,11.43
2019-04-29T15:45:19.026Z,8.83
2019-04-29T15:47:21.170Z,16.02
2019-04-29T15:49:24.674Z,12.60
2019-04-29T15:51:27.213Z,10.63
2019-04-29T15:53:29.253Z,12.85
2019-04-29T15:55:34.940Z,14.05
2019-04-29T15:57:36.060Z,14.15
2019-04-29T15:59:48.470Z,13.45
2019-04-29T16:01:42.808Z,12.63
2019-04-29T16:03:45.115Z,15.43
2019-04-29T16:06:19.420Z,12.35
2019-04-29T16:08:18.770Z,14.10
2019-04-29T16:10:59.268Z,11.70
2019-04-29T16:13:05.378Z,16.60
2019-04-29T16:15:07.537Z,14.75
2019-04-29T16:17:09.780Z,15.28
2019-04-29T16:19:12.062Z,15.10
2019-04-29T16:21:14.040Z,11.43
2019-04-29T16:23:16.183Z,11.75
2019-04-29T16:25:18.592Z,14.07
2019-04-29T16:27:20.603Z,13.62
2019-04-29T16:29:22.674Z,14.68
2019-04-29T16:31:24.753Z,12.73
2019-04-29T16:33:26.827Z,13.55
2019-04-29T16:35:34.651Z,13.40
2019-04-29T16:37:34.507Z,15.03
2019-04-29T16:39:36.534Z,16.25
2019-04-29T16:42:07.129Z,12.40
2019-04-29T16:44:33.235Z,15.45
2019-04-29T16:46:24.319Z,12.25
2019-04-29T16:48:24.483Z,12.03
2019-04-29T16:50:26.528Z,15.28
2019-04-29T16:52:28.609Z,10.23
2019-04-29T16:54:30.875Z,10.05
2019-04-29T16:56:32.904Z,13.13
2019-04-29T16:58:35.052Z,12.85
2019-04-29T17:00:38.963Z,15.70
2019-04-29T17:02:40.960Z,10.45
2019-04-29T17:04:44.818Z,12.25
2019-04-29T17:09:09.670Z,11.68
2019-04-29T17:11:19.593Z,11.55
2019-04-29T17:13:23.826Z,12.10
2019-04-29T17:15:26.465Z,13.10
2019-04-29T17:17:29.589Z,15.15
2019-04-29T17:19:31.744Z,12.90
2019-04-29T17:21:33.754Z,12.73
2019-04-29T17:23:36.045Z,12.30
2019-04-29T17:25:38.036Z,10.58
2019-04-29T17:28:12.203Z,17.32
2019-04-29T17:30:38.331Z,14.10
2019-04-29T17:32:50.686Z,9.63
2019-04-29T17:34:59.458Z,12.07
2019-04-29T17:36:57.181Z,11.70
2019-04-29T17:38:59.817Z,16.95
2019-04-29T17:41:02.952Z,16.32
2019-04-29T17:43:21.985Z,9.88
2019-04-29T17:45:32.359Z,9.98
2019-04-29T17:48:00.051Z,8.85
2019-04-29T17:50:39.183Z,10.55
2019-04-29T17:52:41.078Z,12.78
2019-04-29T17:54:45.131Z,12.05
2019-04-29T17:57:16.199Z,12.98
2019-04-29T17:59:29.612Z,9.38
2019-04-29T18:01:49.248Z,16.45
2019-04-29T18:04:02.141Z,9.63
2019-04-29T18:06:36.316Z,8.65
2019-04-29T18:08:57.740Z,12.90
2019-04-29T18:11:06.546Z,9.40
2019-04-29T18:13:06.634Z,10.60
2019-04-29T18:17:24.223Z,11.53
2019-04-29T18:19:24.758Z,11.83
2019-04-29T18:21:52.031Z,12.10
2019-04-29T18:24:08.341Z,12.88
2019-04-29T18:26:19.086Z,10.95
2019-04-29T18:28:21.545Z,14.50
2019-04-29T18:32:35.590Z,12.93
2019-04-29T18:34:33.683Z,13.50
2019-04-29T18:36:37.279Z,12.65
2019-04-29T18:38:42.435Z,11.85
2019-04-29T18:40:44.780Z,11.97
2019-04-29T18:42:48.670Z,10.95
2019-04-29T18:44:57.716Z,13.50
2019-04-29T18:46:57.201Z,10.68
2019-04-29T18:49:03.131Z,12.60
2019-04-29T18:51:02.611Z,15.00
2019-04-29T18:53:06.768Z,13.28
2019-04-29T18:55:08.897Z,14.47
2019-04-29T18:57:11.120Z,14.63
2019-04-29T18:59:13.263Z,13.55
2019-04-29T19:01:16.688Z,12.23
2019-04-29T19:03:29.726Z,17.87
2019-04-29T19:05:37.863Z,11.78
2019-04-29T19:07:39.990Z,13.78
2019-04-29T19:09:42.682Z,12.60
2019-04-29T19:11:46.278Z,12.70
2019-04-29T19:13:52.040Z,13.95
2019-04-29T19:15:52.743Z,11.35
2019-04-29T19:17:59.706Z,13.00
2019-04-29T19:19:58.975Z,11.63
2019-04-29T19:22:07.773Z,10.15
2019-04-29T19:24:06.444Z,16.67
2019-04-29T19:26:08.524Z,10.90
2019-04-29T19:28:14.281Z,10.20
2019-04-29T19:30:21.191Z,11.50
2019-04-29T19:32:23.119Z,13.55
2019-04-29T19:34:25.267Z,11.93
2019-04-29T19:38:29.131Z,10.72
2019-04-29T19:40:38.980Z,9.80
2019-04-29T19:42:39.631Z,12.05
2019-04-29T19:44:39.610Z,15.40
2019-04-29T19:46:41.653Z,15.18
2019-04-29T19:48:45.108Z,19.15
2019-04-29T19:50:50.096Z,12.98
2019-04-29T19:52:52.646Z,16.67
2019-04-29T19:54:57.389Z,10.48
2019-04-29T19:57:03.437Z,12.15
2019-04-29T19:59:11.593Z,10.15
2019-04-29T20:01:13.386Z,13.78
2019-04-29T20:03:22.985Z,14.45
2019-04-29T20:05:23.644Z,19.25
2019-04-29T20:07:27.330Z,11.93
2019-04-29T20:09:30.907Z,14.03
2019-04-29T20:11:34.640Z,11.75
2019-04-29T20:13:41.154Z,12.68
2019-04-29T20:15:48.533Z,16.35
2019-04-29T20:18:11.125Z,11.03
2019-04-29T20:20:25.416Z,10.82
2019-04-29T20:22:27.824Z,9.35
2019-04-29T20:24:30.344Z,9.45
2019-04-29T20:26:32.969Z,10.15
2019-04-29T20:28:36.018Z,7.90
2019-04-29T20:30:38.508Z,11.90
2019-04-29T20:32:40.938Z,8.40
2019-04-29T20:36:45.690Z,10.15
2019-04-29T20:38:49.397Z,15.08
2019-04-29T20:40:51.617Z,9.28
2019-04-29T20:42:54.012Z,13.15
2019-04-29T20:47:16.706Z,9.90
2019-04-29T20:49:02.193Z,9.45
2019-04-29T20:51:11.617Z,12.23
2019-04-29T20:53:30.894Z,12.73
2019-04-29T20:55:36.708Z,19.15
2019-04-29T20:57:36.260Z,10.45
2019-04-29T20:59:42.119Z,12.50
2019-04-29T21:01:46.095Z,11.22
2019-04-29T21:03:52.040Z,10.08
2019-04-29T21:07:08.822Z,10.13
2019-04-29T21:09:10.920Z,8.93
2019-04-29T21:11:21.001Z,7.75
2019-04-29T21:13:43.887Z,7.40
2019-04-29T21:16:00.179Z,11.45
2019-04-29T21:18:02.190Z,8.83
2019-04-29T21:20:05.630Z,6.50
2019-04-29T21:22:07.628Z,7.42
2019-04-29T21:24:13.993Z,6.70
2019-04-29T21:26:15.446Z,6.08
2019-04-29T21:28:17.926Z,6.80
2019-04-29T21:30:20.063Z,7.33
2019-04-29T21:32:22.317Z,6.40
2019-04-29T21:34:29.633Z,9.30
2019-04-29T21:36:50.856Z,6.65
2019-04-29T21:39:06.186Z,8.13
2019-04-29T21:41:15.577Z,5.83
2019-04-29T21:43:22.517Z,6.22
2019-04-29T21:45:25.669Z,6.08
2019-04-29T21:47:32.053Z,5.40
2019-04-29T21:49:43.352Z,7.97
2019-04-29T21:51:36.154Z,6.97
2019-04-29T21:53:40.310Z,4.83
2019-04-29T21:55:42.489Z,7.50
2019-04-29T21:57:47.598Z,6.78
2019-04-29T21:59:49.593Z,7.22
2019-04-29T22:01:51.880Z,7.85
2019-04-29T22:03:57.758Z,5.95
2019-04-29T22:06:00.293Z,5.28
2019-04-29T22:08:02.044Z,5.50
2019-04-29T22:10:06.316Z,7.37
2019-04-29T22:12:08.685Z,6.40
2019-04-29T22:14:14.180Z,5.42
2019-04-29T22:16:15.758Z,6.37
2019-04-29T22:18:19.108Z,4.35
2019-04-29T22:20:21.367Z,4.42
2019-04-29T22:22:26.488Z,7.22
2019-04-29T22:24:28.563Z,8.40
2019-04-29T22:26:30.688Z,8.40
2019-04-29T22:28:32.705Z,5.37
2019-04-29T22:30:35.413Z,7.37
2019-04-29T22:32:37.664Z,9.23
2019-04-29T22:34:39.724Z,12.73
2019-04-29T22:36:41.773Z,9.30
2019-04-29T22:38:48.597Z,10.78
2019-04-29T22:40:48.745Z,8.73
2019-04-29T22:43:10.809Z,8.88
2019-04-29T22:45:13.945Z,6.17
2019-04-29T22:47:17.332Z,8.28
2019-04-29T22:49:27.287Z,5.70
2019-04-29T22:51:25.422Z,6.45
2019-04-29T22:53:27.592Z,5.37
2019-04-29T22:55:35.705Z,5.20
2019-04-29T22:57:37.015Z,7.60
2019-04-29T23:01:42.423Z,6.05
2019-04-29T23:03:47.109Z,5.90
2019-04-29T23:05:49.539Z,9.18
2019-04-29T23:07:52.870Z,6.33
2019-04-29T23:09:57.328Z,3.95
2019-04-29T23:11:59.507Z,5.03
2019-04-29T23:14:05.724Z,5.40
2019-04-29T23:16:06.034Z,5.85
2019-04-29T23:20:39.185Z,4.87
2019-04-29T23:22:52.660Z,7.92
2019-04-29T23:24:57.514Z,6.22
2019-04-29T23:27:00.142Z,5.70
2019-04-29T23:29:03.635Z,4.97
2019-04-29T23:31:09.212Z,3.67
2019-04-29T23:33:11.447Z,5.60
2019-04-29T23:35:14.857Z,3.83
2019-04-29T23:37:19.462Z,3.58
2019-04-29T23:39:21.507Z,3.08
2019-04-29T23:43:28.545Z,7.30
2019-04-29T23:45:31.149Z,3.52
2019-04-29T23:47:35.603Z,4.97
2019-04-29T23:49:42.444Z,7.20
2019-04-29T23:51:41.805Z,4.67
2019-04-29T23:53:45.293Z,4.35
2019-04-29T23:55:47.921Z,7.17
2019-04-29T23:58:12.503Z,6.30
